createdAt,value
2024-02-04T00:00:34.757Z,83.16
2024-02-04T00:03:26.577Z,83.19
2024-02-04T00:05:58.667Z,82.98
2024-02-04T00:08:30.396Z,83.31
2024-02-04T00:11:02.041Z,84.10
2024-02-04T00:13:33.711Z,84.10
2024-02-04T00:16:05.837Z,83.58
2024-02-04T00:18:37.708Z,83.33
2024-02-04T00:21:09.751Z,83.41
2024-02-04T00:23:39.892Z,83.33
2024-02-04T00:26:11.573Z,83.20
2024-02-04T00:28:44.365Z,83.26
2024-02-04T00:31:16.195Z,83.16
2024-02-04T00:33:48.090Z,82.95
2024-02-04T00:36:20.576Z,83.16
2024-02-04T00:38:52.577Z,83.07
2024-02-04T00:42:29.614Z,82.99
2024-02-04T00:46:30.007Z,82.94
2024-02-04T00:50:17.720Z,83.03
2024-02-04T00:53:50.830Z,83.08
2024-02-04T00:57:14.782Z,82.93
2024-02-04T01:00:43.694Z,83.04
2024-02-04T01:03:56.967Z,83.03
2024-02-04T01:07:28.036Z,83.02
2024-02-04T01:10:26.195Z,83.08
2024-02-04T01:17:46.405Z,83.01
2024-02-04T01:21:01.949Z,83.43
2024-02-04T01:23:52.068Z,83.25
2024-02-04T01:34:08.792Z,83.59
2024-02-04T01:41:21.831Z,83.41
2024-02-04T01:47:25.253Z,83.68
2024-02-04T01:50:37.565Z,83.62
2024-02-04T02:01:33.406Z,83.37
2024-02-04T02:04:06.744Z,83.31
2024-02-04T02:06:43.275Z,83.32
2024-02-04T02:09:16.136Z,83.41
2024-02-04T02:11:50.148Z,83.16
2024-02-04T02:14:27.163Z,83.15
2024-02-04T02:17:05.197Z,83.37
2024-02-04T02:19:52.656Z,83.34
2024-02-04T02:22:40.197Z,83.24
2024-02-04T02:25:12.634Z,83.26
2024-02-04T02:27:51.769Z,83.42
2024-02-04T02:30:23.707Z,83.27
2024-02-04T02:32:55.890Z,83.28
2024-02-04T02:35:28.184Z,83.40
2024-02-04T02:38:09.587Z,83.29
2024-02-04T02:40:47.552Z,83.21
2024-02-04T02:43:19.983Z,83.09
2024-02-04T02:45:52.498Z,83.25
2024-02-04T02:48:26.254Z,83.33
2024-02-04T02:50:59.430Z,83.51
2024-02-04T02:53:31.282Z,83.26
2024-02-04T02:56:03.218Z,83.45
2024-02-04T02:58:34.899Z,83.82
2024-02-04T03:01:06.870Z,84.54
2024-02-04T03:03:37.114Z,85.32
2024-02-04T03:06:09.301Z,86.30
2024-02-04T03:08:41.009Z,86.39
2024-02-04T03:11:13.124Z,86.43
2024-02-04T03:13:44.784Z,85.94
2024-02-04T03:16:16.964Z,85.38
2024-02-04T03:18:49.728Z,85.65
2024-02-04T03:21:21.699Z,86.17
2024-02-04T03:23:51.952Z,87.38
2024-02-04T03:26:23.576Z,86.91
2024-02-04T03:28:55.352Z,85.64
2024-02-04T03:31:27.250Z,85.41
2024-02-04T03:33:57.697Z,85.68
2024-02-04T03:36:29.628Z,85.34
2024-02-04T03:39:01.633Z,85.22
2024-02-04T03:41:33.319Z,86.09
2024-02-04T03:44:05.155Z,85.98
2024-02-04T03:46:37.651Z,85.44
2024-02-04T03:49:09.805Z,85.71
2024-02-04T03:51:41.595Z,85.28
2024-02-04T03:54:13.333Z,84.88
2024-02-04T03:56:44.053Z,84.71
2024-02-04T03:59:16.047Z,84.45
2024-02-04T04:01:50.804Z,84.47
2024-02-04T04:04:22.747Z,84.69
2024-02-04T04:06:53.005Z,84.40
2024-02-04T04:09:24.803Z,84.23
2024-02-04T04:11:56.452Z,84.68
2024-02-04T04:14:28.163Z,85.56
2024-02-04T04:16:59.817Z,84.66
2024-02-04T04:19:34.373Z,84.23
2024-02-04T04:22:06.896Z,84.29
2024-02-04T04:24:40.162Z,84.02
2024-02-04T04:27:12.566Z,84.12
2024-02-04T04:29:44.497Z,84.10
2024-02-04T04:32:16.364Z,83.85
2024-02-04T04:34:48.023Z,83.87
2024-02-04T04:37:19.745Z,83.98
2024-02-04T04:39:51.483Z,83.97
2024-02-04T04:42:23.267Z,83.90
2024-02-04T04:44:54.984Z,83.91
2024-02-04T04:47:26.676Z,83.99
2024-02-04T04:49:58.328Z,84.19
2024-02-04T04:52:30.051Z,83.91
2024-02-04T04:55:01.882Z,84.16
2024-02-04T04:57:33.612Z,83.87
2024-02-04T05:00:08.026Z,83.76
2024-02-04T05:02:39.836Z,83.69
2024-02-04T05:05:12.439Z,83.61
2024-02-04T05:07:44.468Z,83.50
2024-02-04T05:10:16.455Z,83.69
2024-02-04T05:12:46.580Z,83.63
2024-02-04T05:15:18.660Z,83.43
2024-02-04T05:17:49.357Z,83.64
2024-02-04T05:20:21.158Z,83.81
2024-02-04T05:22:52.856Z,83.88
2024-02-04T05:25:24.566Z,84.51
2024-02-04T05:27:56.213Z,84.40
2024-02-04T05:30:26.842Z,83.92
2024-02-04T05:32:58.625Z,83.73
2024-02-04T05:35:30.301Z,83.66
2024-02-04T05:38:02.040Z,83.69
2024-02-04T05:40:33.691Z,83.51
2024-02-04T05:43:11.612Z,83.46
2024-02-04T05:45:44.610Z,83.47
2024-02-04T05:48:16.625Z,83.40
2024-02-04T05:50:47.027Z,83.52
2024-02-04T05:53:18.701Z,83.51
2024-02-04T05:55:50.637Z,83.79
2024-02-04T05:58:22.256Z,83.67
2024-02-04T06:00:53.982Z,83.92
2024-02-04T06:03:26.874Z,83.73
2024-02-04T06:05:59.738Z,83.68
2024-02-04T06:08:31.517Z,83.55
2024-02-04T06:11:03.440Z,83.63
2024-02-04T06:13:33.534Z,83.78
2024-02-04T06:16:05.553Z,83.67
2024-02-04T06:18:39.112Z,83.88
2024-02-04T06:21:10.973Z,83.81
2024-02-04T06:23:43.083Z,83.77
2024-02-04T06:26:14.829Z,84.01
2024-02-04T06:28:47.997Z,83.72
2024-02-04T06:31:19.745Z,83.67
2024-02-04T06:33:52.723Z,83.67
2024-02-04T06:36:24.762Z,83.97
2024-02-04T06:38:56.762Z,83.93
2024-02-04T06:41:28.394Z,83.82
2024-02-04T06:44:00.044Z,83.87
2024-02-04T06:46:31.841Z,83.77
2024-02-04T06:49:03.648Z,83.82
2024-02-04T06:51:35.415Z,83.90
2024-02-04T06:54:07.307Z,83.86
2024-02-04T06:56:39.129Z,83.87
2024-02-04T06:59:10.941Z,83.76
2024-02-04T07:01:43.138Z,83.54
2024-02-04T07:04:15.075Z,83.59
2024-02-04T07:06:45.260Z,83.60
2024-02-04T07:09:17.102Z,83.69
2024-02-04T07:11:48.899Z,83.96
2024-02-04T07:14:20.556Z,83.81
2024-02-04T07:16:52.309Z,83.82
2024-02-04T07:19:24.548Z,83.95
2024-02-04T07:21:56.613Z,83.84
2024-02-04T07:24:28.632Z,83.89
2024-02-04T07:26:58.953Z,84.00
2024-02-04T07:29:30.763Z,83.86
2024-02-04T07:32:02.404Z,83.88
2024-02-04T07:34:35.181Z,83.74
2024-02-04T07:37:07.271Z,83.57
2024-02-04T07:39:37.580Z,83.44
2024-02-04T07:42:09.611Z,83.38
2024-02-04T07:44:41.282Z,83.51
2024-02-04T07:47:13.060Z,83.46
2024-02-04T07:49:44.859Z,83.47
2024-02-04T07:52:16.719Z,83.52
2024-02-04T07:54:48.605Z,83.39
2024-02-04T07:57:20.654Z,83.33
2024-02-04T07:59:50.846Z,83.15
2024-02-04T08:02:22.545Z,83.19
2024-02-04T08:04:55.156Z,83.28
2024-02-04T08:07:30.416Z,83.37
2024-02-04T08:10:06.089Z,83.52
2024-02-04T08:12:42.137Z,83.74
2024-02-04T08:15:16.071Z,83.57
2024-02-04T08:17:51.836Z,83.49
2024-02-04T08:20:24.896Z,83.66
2024-02-04T08:22:58.585Z,83.66
2024-02-04T08:25:33.149Z,83.55
2024-02-04T08:28:08.276Z,83.58
2024-02-04T08:30:43.312Z,83.66
2024-02-04T08:33:15.676Z,83.29
2024-02-04T08:35:45.982Z,83.07
2024-02-04T08:38:17.632Z,83.08
2024-02-04T08:40:49.387Z,84.15
2024-02-04T08:43:21.341Z,84.38
2024-02-04T08:45:53.164Z,84.16
2024-02-04T08:48:24.989Z,83.88
2024-02-04T08:50:59.073Z,83.54
2024-02-04T08:53:30.969Z,83.50
2024-02-04T08:56:02.691Z,83.59
2024-02-04T08:58:34.533Z,83.69
2024-02-04T09:01:06.825Z,83.68
2024-02-04T09:03:39.092Z,83.61
2024-02-04T09:06:10.935Z,83.75
2024-02-04T09:08:42.834Z,83.59
2024-02-04T09:11:19.868Z,84.48
2024-02-04T09:13:53.316Z,84.74
2024-02-04T09:16:25.228Z,84.42
2024-02-04T09:18:55.588Z,84.89
2024-02-04T09:21:27.992Z,85.08
2024-02-04T09:23:59.735Z,85.22
2024-02-04T09:26:33.722Z,84.99
2024-02-04T09:29:06.026Z,85.36
2024-02-04T09:31:37.794Z,84.70
2024-02-04T09:34:09.839Z,84.29
2024-02-04T09:36:41.822Z,84.61
2024-02-04T09:39:12.207Z,84.53
2024-02-04T09:41:45.431Z,84.41
2024-02-04T09:44:19.404Z,84.34
2024-02-04T09:46:51.771Z,84.23
2024-02-04T09:49:24.594Z,83.84
2024-02-04T09:51:57.065Z,83.91
2024-02-04T09:54:29.869Z,83.89
2024-02-04T09:57:02.431Z,83.70
2024-02-04T09:59:34.385Z,83.56
2024-02-04T10:02:06.137Z,83.51
2024-02-04T10:04:38.385Z,83.46
2024-02-04T10:07:11.017Z,83.41
2024-02-04T10:09:42.911Z,83.42
2024-02-04T10:12:14.990Z,83.41
2024-02-04T10:14:46.772Z,83.44
2024-02-04T10:17:21.352Z,83.39
2024-02-04T10:19:53.294Z,83.45
2024-02-04T10:22:28.286Z,83.26
2024-02-04T10:25:13.146Z,83.27
2024-02-04T10:27:47.848Z,82.59
2024-02-04T10:30:22.755Z,82.53
2024-02-04T10:32:56.125Z,82.52
2024-02-04T10:35:28.025Z,82.42
2024-02-04T10:37:59.972Z,82.38
2024-02-04T10:40:31.758Z,82.21
2024-02-04T10:43:08.662Z,82.13
2024-02-04T10:45:44.690Z,82.21
2024-02-04T10:48:21.708Z,81.55
2024-02-04T10:50:58.354Z,82.01
2024-02-04T10:53:30.511Z,81.92
2024-02-04T10:56:05.579Z,82.03
2024-02-04T10:58:39.442Z,81.54
2024-02-04T11:01:12.126Z,81.70
2024-02-04T11:03:47.353Z,81.91
2024-02-04T11:06:20.912Z,81.73
2024-02-04T11:08:56.467Z,81.87
2024-02-04T11:11:29.057Z,81.83
2024-02-04T11:14:06.848Z,81.69
2024-02-04T11:16:57.588Z,81.59
2024-02-04T11:19:43.457Z,81.77
2024-02-04T11:22:51.023Z,81.97
2024-02-04T11:25:41.712Z,82.14
2024-02-04T11:28:12.943Z,81.75
2024-02-04T11:30:46.507Z,81.88
2024-02-04T11:33:23.275Z,81.70
2024-02-04T11:36:08.393Z,81.47
2024-02-04T11:38:40.779Z,81.59
2024-02-04T11:41:12.593Z,81.67
2024-02-04T11:43:47.818Z,81.35
2024-02-04T11:46:21.367Z,81.25
2024-02-04T11:48:57.078Z,81.29
2024-02-04T11:51:29.279Z,81.24
2024-02-04T11:54:03.432Z,81.54
2024-02-04T11:56:37.119Z,80.88
2024-02-04T11:59:13.758Z,81.14
2024-02-04T12:01:48.230Z,80.77
2024-02-04T12:04:21.217Z,80.39
2024-02-04T12:06:54.720Z,80.14
2024-02-04T12:09:31.255Z,80.62
2024-02-04T12:12:07.321Z,80.40
2024-02-04T12:14:41.455Z,80.47
2024-02-04T12:17:14.669Z,79.82
2024-02-04T12:19:48.788Z,79.60
2024-02-04T12:22:26.426Z,80.04
2024-02-04T12:24:58.303Z,80.17
2024-02-04T12:27:30.067Z,79.84
2024-02-04T12:30:06.595Z,79.64
2024-02-04T12:32:39.072Z,79.42
2024-02-04T12:35:17.297Z,79.50
2024-02-04T12:37:58.522Z,79.65
2024-02-04T12:40:32.302Z,79.65
2024-02-04T12:43:07.096Z,79.53
2024-02-04T12:45:39.319Z,79.60
2024-02-04T12:48:11.569Z,79.48
2024-02-04T12:50:43.464Z,79.57
2024-02-04T12:53:16.638Z,79.68
2024-02-04T12:55:48.841Z,79.67
2024-02-04T12:58:20.833Z,79.49
2024-02-04T13:01:06.584Z,79.65
2024-02-04T13:03:39.228Z,79.52
2024-02-04T13:06:11.464Z,79.56
2024-02-04T13:08:43.457Z,79.34
2024-02-04T13:11:23.311Z,79.55
2024-02-04T13:13:55.695Z,79.43
2024-02-04T13:16:28.250Z,79.75
2024-02-04T13:19:09.845Z,79.96
2024-02-04T13:22:06.507Z,79.68
2024-02-04T13:24:37.346Z,79.65
2024-02-04T13:27:09.933Z,79.85
2024-02-04T13:29:45.069Z,79.85
2024-02-04T13:32:20.711Z,79.62
2024-02-04T13:34:59.896Z,79.66
2024-02-04T13:37:42.236Z,79.32
2024-02-04T13:40:15.836Z,79.23
2024-02-04T13:42:48.658Z,79.32
2024-02-04T13:45:32.591Z,79.36
2024-02-04T13:48:04.544Z,79.18
2024-02-04T13:50:38.528Z,79.21
2024-02-04T13:53:12.385Z,78.66
2024-02-04T13:55:44.875Z,78.86
2024-02-04T13:58:19.907Z,79.05
2024-02-04T14:00:57.020Z,79.04
2024-02-04T14:03:28.938Z,79.20
2024-02-04T14:05:59.183Z,79.32
2024-02-04T14:08:30.848Z,79.05
2024-02-04T14:11:24.002Z,78.89
2024-02-04T14:13:55.819Z,78.92
2024-02-04T14:16:27.622Z,78.75
2024-02-04T14:19:01.347Z,78.85
2024-02-04T14:21:33.520Z,78.99
2024-02-04T14:24:07.800Z,78.84
2024-02-04T14:26:39.893Z,78.79
2024-02-04T14:29:11.689Z,78.96
2024-02-04T14:31:44.530Z,79.11
2024-02-04T14:34:16.324Z,79.07
2024-02-04T14:36:50.309Z,79.17
2024-02-04T14:39:22.131Z,79.27
2024-02-04T14:41:55.138Z,79.63
2024-02-04T14:44:27.308Z,79.22
2024-02-04T14:46:58.993Z,79.48
2024-02-04T14:49:30.774Z,79.68
2024-02-04T14:52:02.742Z,79.75
2024-02-04T14:54:32.987Z,79.61
2024-02-04T14:57:04.972Z,79.80
2024-02-04T14:59:38.503Z,79.94
2024-02-04T15:02:13.051Z,80.07
2024-02-04T15:04:45.319Z,79.92
2024-02-04T15:07:17.118Z,80.40
2024-02-04T15:09:51.498Z,80.22
2024-02-04T15:12:24.209Z,80.34
2024-02-04T15:14:58.717Z,80.24
2024-02-04T15:17:31.439Z,80.05
2024-02-04T15:20:04.824Z,80.12
2024-02-04T15:22:37.563Z,80.36
2024-02-04T15:25:12.945Z,80.28
2024-02-04T15:27:45.871Z,80.32
2024-02-04T15:30:20.039Z,80.53
2024-02-04T15:32:53.390Z,80.72
2024-02-04T15:35:26.857Z,80.40
2024-02-04T15:37:59.680Z,80.12
2024-02-04T15:40:32.325Z,80.20
2024-02-04T15:43:04.222Z,80.17
2024-02-04T15:45:40.248Z,80.27
2024-02-04T15:48:13.263Z,80.40
2024-02-04T15:50:46.036Z,80.19
2024-02-04T15:53:19.665Z,80.05
2024-02-04T15:55:52.374Z,80.22
2024-02-04T15:58:27.872Z,80.18
2024-02-04T16:01:04.240Z,80.03
2024-02-04T16:03:38.648Z,79.63
2024-02-04T16:06:12.320Z,79.57
2024-02-04T16:08:45.757Z,79.65
2024-02-04T16:11:21.092Z,80.09
2024-02-04T16:13:55.198Z,79.89
2024-02-04T16:16:38.700Z,79.63
2024-02-04T16:19:11.411Z,79.43
2024-02-04T16:21:44.782Z,79.44
2024-02-04T16:24:16.440Z,79.34
2024-02-04T16:26:48.123Z,79.23
2024-02-04T16:29:19.854Z,79.24
2024-02-04T16:31:54.393Z,79.59
2024-02-04T16:34:28.277Z,79.38
2024-02-04T16:37:02.933Z,79.42
2024-02-04T16:39:35.242Z,79.40
2024-02-04T16:42:09.874Z,79.52
2024-02-04T16:44:41.740Z,79.54
2024-02-04T16:47:13.629Z,79.40
2024-02-04T16:49:44.121Z,79.60
2024-02-04T16:52:16.151Z,79.44
2024-02-04T16:54:47.061Z,79.29
2024-02-04T16:57:18.902Z,79.39
2024-02-04T16:59:51.011Z,78.98
2024-02-04T17:02:39.775Z,78.86
2024-02-04T17:05:13.894Z,78.97
2024-02-04T17:07:46.608Z,78.41
2024-02-04T17:10:19.581Z,78.29
2024-02-04T17:12:52.478Z,78.67
2024-02-04T17:15:25.601Z,78.71
2024-02-04T17:18:03.358Z,78.74
2024-02-04T17:20:44.720Z,78.57
2024-02-04T17:23:19.375Z,78.76
2024-02-04T17:26:00.319Z,78.78
2024-02-04T17:28:33.154Z,78.86
2024-02-04T17:31:06.212Z,78.77
2024-02-04T17:33:39.839Z,79.04
2024-02-04T17:36:12.787Z,79.20
2024-02-04T17:38:54.708Z,79.03
2024-02-04T17:41:29.232Z,79.33
2024-02-04T17:44:01.875Z,79.47
2024-02-04T17:46:35.034Z,79.79
2024-02-04T17:49:10.765Z,79.92
2024-02-04T17:51:47.309Z,79.83
2024-02-04T17:54:36.282Z,80.03
2024-02-04T17:57:10.366Z,80.01
2024-02-04T17:59:44.183Z,80.07
2024-02-04T18:02:22.314Z,80.35
2024-02-04T18:04:59.769Z,80.43
2024-02-04T18:07:32.678Z,80.22
2024-02-04T18:10:07.258Z,80.16
2024-02-04T18:12:41.064Z,80.25
2024-02-04T18:15:15.474Z,80.19
2024-02-04T18:17:49.518Z,80.12
2024-02-04T18:20:22.297Z,80.08
2024-02-04T18:22:54.756Z,80.21
2024-02-04T18:25:28.322Z,80.17
2024-02-04T18:28:05.219Z,80.05
2024-02-04T18:30:38.023Z,80.04
2024-02-04T18:33:11.040Z,80.02
2024-02-04T18:35:44.173Z,80.07
2024-02-04T18:38:16.891Z,80.00
2024-02-04T18:40:50.088Z,80.03
2024-02-04T18:43:23.914Z,80.03
2024-02-04T18:45:59.180Z,80.10
2024-02-04T18:48:32.424Z,80.27
2024-02-04T18:51:05.551Z,80.19
2024-02-04T18:53:38.688Z,80.15
2024-02-04T18:56:17.026Z,80.16
2024-02-04T18:58:51.907Z,80.31
2024-02-04T19:01:31.165Z,80.20
2024-02-04T19:04:04.713Z,80.49
2024-02-04T19:06:37.504Z,80.35
2024-02-04T19:09:13.891Z,80.55
2024-02-04T19:11:47.527Z,80.44
2024-02-04T19:14:23.827Z,80.48
2024-02-04T19:16:56.908Z,80.54
2024-02-04T19:19:30.684Z,80.63
2024-02-04T19:22:03.593Z,80.90
2024-02-04T19:24:41.008Z,80.91
2024-02-04T19:27:15.026Z,81.12
2024-02-04T19:29:48.303Z,81.12
2024-02-04T19:32:20.973Z,81.06
2024-02-04T19:34:56.856Z,81.40
2024-02-04T19:37:29.711Z,81.27
2024-02-04T19:40:03.334Z,81.48
2024-02-04T19:42:36.756Z,81.33
2024-02-04T19:45:13.884Z,81.40
2024-02-04T19:47:47.320Z,81.56
2024-02-04T19:50:21.324Z,81.56
2024-02-04T19:52:54.103Z,81.58
2024-02-04T19:55:27.244Z,81.59
2024-02-04T19:58:03.181Z,81.63
2024-02-04T20:00:36.412Z,81.62
2024-02-04T20:03:18.567Z,81.86
2024-02-04T20:05:57.833Z,81.78
2024-02-04T20:08:44.548Z,81.74
2024-02-04T20:11:53.100Z,81.93
2024-02-04T20:14:26.618Z,81.67
2024-02-04T20:17:00.995Z,81.74
2024-02-04T20:19:36.734Z,81.63
2024-02-04T20:22:08.867Z,81.82
2024-02-04T20:28:05.354Z,81.73
2024-02-04T20:30:39.418Z,81.63
2024-02-04T20:33:14.246Z,81.69
2024-02-04T20:35:47.264Z,81.94
2024-02-04T20:38:20.885Z,81.93
2024-02-04T20:40:55.466Z,81.93
2024-02-04T20:43:29.087Z,82.07
2024-02-04T20:46:02.444Z,82.12
2024-02-04T20:48:35.425Z,82.22
2024-02-04T20:51:06.463Z,82.21
2024-02-04T20:53:40.780Z,82.30
2024-02-04T20:56:17.268Z,82.24
2024-02-04T20:58:50.260Z,82.24
2024-02-04T21:01:25.263Z,82.14
2024-02-04T21:03:57.281Z,82.17
2024-02-04T21:06:32.230Z,82.19
2024-02-04T21:09:05.873Z,82.26
2024-02-04T21:11:38.212Z,82.58
2024-02-04T21:14:10.460Z,83.24
2024-02-04T21:16:42.148Z,83.37
2024-02-04T21:19:14.243Z,83.20
2024-02-04T21:21:46.160Z,82.63
2024-02-04T21:24:19.782Z,82.91
2024-02-04T21:26:51.533Z,82.60
2024-02-04T21:29:24.623Z,82.52
2024-02-04T21:31:56.863Z,82.53
2024-02-04T21:37:00.664Z,82.50
2024-02-04T21:39:31.049Z,82.45
2024-02-04T21:42:14.533Z,82.25
2024-02-04T21:44:49.075Z,82.34
2024-02-04T21:47:28.316Z,82.36
2024-02-04T21:50:01.705Z,82.29
2024-02-04T21:52:33.579Z,82.34
2024-02-04T21:55:05.734Z,82.36
2024-02-04T21:57:37.709Z,82.06
2024-02-04T22:00:09.515Z,82.16
2024-02-04T22:02:41.169Z,82.60
2024-02-04T22:05:13.091Z,82.29
2024-02-04T22:07:43.368Z,82.31
2024-02-04T22:10:15.735Z,82.27
2024-02-04T22:12:47.570Z,82.39
2024-02-04T22:15:18.071Z,82.34
2024-02-04T22:17:49.916Z,82.40
2024-02-04T22:20:20.641Z,82.43
2024-02-04T22:22:52.580Z,82.43
2024-02-04T22:25:27.999Z,82.58
2024-02-04T22:28:00.172Z,82.55
2024-02-04T22:30:32.206Z,82.50
2024-02-04T22:33:04.074Z,82.47
2024-02-04T22:35:34.238Z,82.46
2024-02-04T22:38:06.341Z,82.38
2024-02-04T22:40:38.409Z,82.52
2024-02-04T22:43:11.538Z,82.70
2024-02-04T22:45:43.335Z,82.50
2024-02-04T22:48:15.688Z,82.41
2024-02-04T22:50:47.872Z,82.50
2024-02-04T22:53:19.764Z,82.33
2024-02-04T22:55:49.919Z,82.36
2024-02-04T22:58:22.083Z,82.32
2024-02-04T23:00:53.866Z,82.97
2024-02-04T23:03:25.636Z,82.57
2024-02-04T23:05:57.374Z,82.42
2024-02-04T23:08:29.143Z,82.43
2024-02-04T23:11:00.940Z,82.48
2024-02-04T23:13:33.076Z,82.41
2024-02-04T23:16:06.448Z,82.46
2024-02-04T23:18:38.551Z,82.42
2024-02-04T23:21:10.549Z,82.43
2024-02-04T23:23:42.617Z,82.28
2024-02-04T23:26:14.456Z,82.45
2024-02-04T23:28:45.096Z,82.55
2024-02-04T23:31:17.572Z,82.34
2024-02-04T23:33:49.452Z,82.37
2024-02-04T23:36:21.398Z,82.33
2024-02-04T23:38:53.464Z,82.48
2024-02-04T23:41:26.508Z,82.28
2024-02-04T23:43:58.456Z,82.35
2024-02-04T23:46:28.583Z,82.28
2024-02-04T23:49:01.019Z,82.20
2024-02-04T23:51:32.897Z,82.16
2024-02-04T23:54:04.640Z,82.35
2024-02-04T23:56:37.280Z,82.36
2024-02-04T23:59:09.102Z,82.37
